createdAt,value
2022-08-17T00:02:26.852Z,4.40
2022-08-17T00:05:33.257Z,4.80
2022-08-17T00:08:38.535Z,4.30
2022-08-17T00:12:40.666Z,4.93
2022-08-17T00:15:10.336Z,4.78
2022-08-17T00:19:06.541Z,4.30
2022-08-17T00:22:33.121Z,4.15
2022-08-17T00:25:07.432Z,4.65
2022-08-17T00:28:11.074Z,4.40
2022-08-17T00:31:14.422Z,4.53
2022-08-17T00:34:17.380Z,4.87
2022-08-17T00:37:20.141Z,4.65
2022-08-17T00:40:24.819Z,4.82
2022-08-17T00:43:29.857Z,4.87
2022-08-17T00:46:36.441Z,4.75
2022-08-17T00:49:39.559Z,4.70
2022-08-17T00:52:52.047Z,4.47
2022-08-17T00:55:55.827Z,5.20
2022-08-17T00:58:58.744Z,5.25
2022-08-17T01:02:03.178Z,5.00
2022-08-17T01:05:07.386Z,5.40
2022-08-17T01:08:13.562Z,5.07
2022-08-17T01:11:17.219Z,5.05
2022-08-17T01:14:25.419Z,4.80
2022-08-17T01:17:28.580Z,4.82
2022-08-17T01:20:48.113Z,5.03
2022-08-17T01:23:51.253Z,4.80
2022-08-17T01:26:54.093Z,4.62
2022-08-17T01:30:05.131Z,4.70
2022-08-17T01:33:28.677Z,4.35
2022-08-17T01:36:31.208Z,4.80
2022-08-17T01:39:43.566Z,5.10
2022-08-17T01:42:56.088Z,4.62
2022-08-17T01:46:02.524Z,4.85
2022-08-17T01:49:09.868Z,5.05
2022-08-17T01:52:13.361Z,5.07
2022-08-17T01:55:17.765Z,5.32
2022-08-17T01:58:21.541Z,4.68
2022-08-17T02:01:27.586Z,4.90
2022-08-17T02:04:30.626Z,4.62
2022-08-17T02:07:48.017Z,4.53
2022-08-17T02:11:00.377Z,4.37
2022-08-17T02:14:05.427Z,5.05
2022-08-17T02:17:08.242Z,5.20
2022-08-17T02:20:10.882Z,4.57
2022-08-17T02:23:14.455Z,5.60
2022-08-17T02:26:25.870Z,5.05
2022-08-17T02:29:29.593Z,4.97
2022-08-17T02:32:32.222Z,5.18
2022-08-17T02:35:37.165Z,4.95
2022-08-17T02:38:40.672Z,4.80
2022-08-17T02:41:44.974Z,5.05
2022-08-17T02:44:47.988Z,4.90
2022-08-17T02:47:52.089Z,4.90
2022-08-17T02:50:55.379Z,5.18
2022-08-17T02:54:02.205Z,5.85
2022-08-17T02:57:20.815Z,5.18
2022-08-17T03:00:34.065Z,5.07
2022-08-17T03:03:38.302Z,5.37
2022-08-17T03:06:41.171Z,5.22
2022-08-17T03:09:43.738Z,5.10
2022-08-17T03:12:47.147Z,4.85
2022-08-17T03:15:50.661Z,4.80
2022-08-17T03:18:54.755Z,4.70
2022-08-17T03:21:58.772Z,4.87
2022-08-17T03:25:01.852Z,5.07
2022-08-17T03:28:05.794Z,5.55
2022-08-17T03:31:08.772Z,4.75
2022-08-17T03:34:11.292Z,4.82
2022-08-17T03:37:14.762Z,5.30
2022-08-17T03:40:55.389Z,5.87
2022-08-17T03:43:43.220Z,5.62
2022-08-17T03:47:04.202Z,5.43
2022-08-17T03:50:27.790Z,5.70
2022-08-17T03:53:48.716Z,5.70
2022-08-17T03:57:03.554Z,5.30
2022-08-17T04:00:08.143Z,5.35
2022-08-17T04:03:14.800Z,5.43
2022-08-17T04:06:17.659Z,6.12
2022-08-17T04:09:20.234Z,5.87
2022-08-17T04:12:24.268Z,5.72
2022-08-17T04:15:27.441Z,6.97
2022-08-17T04:18:30.369Z,5.78
2022-08-17T04:21:35.027Z,5.95
2022-08-17T04:24:37.836Z,5.93
2022-08-17T04:27:40.331Z,6.25
2022-08-17T04:30:45.137Z,6.03
2022-08-17T04:33:47.608Z,6.25
2022-08-17T04:36:50.663Z,6.40
2022-08-17T04:40:13.280Z,5.60
2022-08-17T04:43:18.602Z,6.07
2022-08-17T04:46:24.440Z,6.05
2022-08-17T04:49:27.263Z,5.60
2022-08-17T04:52:43.078Z,5.60
2022-08-17T04:55:46.492Z,5.70
2022-08-17T04:58:50.989Z,5.85
2022-08-17T05:01:54.663Z,5.65
2022-08-17T05:04:57.130Z,6.07
2022-08-17T05:08:04.547Z,5.80
2022-08-17T05:11:08.226Z,5.93
2022-08-17T05:14:11.233Z,6.57
2022-08-17T05:17:13.761Z,5.62
2022-08-17T05:20:17.532Z,5.53
2022-08-17T05:23:22.287Z,5.82
2022-08-17T05:26:27.463Z,6.28
2022-08-17T05:29:35.185Z,5.53
2022-08-17T05:32:51.069Z,5.82
2022-08-17T05:35:56.698Z,6.10
2022-08-17T05:38:59.525Z,5.25
2022-08-17T05:42:02.619Z,5.60
2022-08-17T05:45:05.871Z,5.28
2022-08-17T05:48:10.253Z,5.53
2022-08-17T05:51:48.525Z,6.40
2022-08-17T05:54:59.906Z,6.10
2022-08-17T05:58:08.714Z,7.80
2022-08-17T06:01:33.539Z,6.37
2022-08-17T06:05:10.805Z,5.70
2022-08-17T06:08:43.972Z,6.70
2022-08-17T06:12:00.363Z,6.50
2022-08-17T06:15:44.024Z,7.12
2022-08-17T06:18:59.915Z,6.68
2022-08-17T06:22:03.492Z,5.85
2022-08-17T06:25:12.555Z,6.65
2022-08-17T06:28:25.515Z,8.65
2022-08-17T06:31:46.570Z,6.20
2022-08-17T06:34:49.293Z,7.05
2022-08-17T06:38:38.897Z,7.70
2022-08-17T06:45:10.121Z,7.30
2022-08-17T06:48:18.837Z,7.00
2022-08-17T06:51:28.037Z,5.80
2022-08-17T06:54:50.794Z,5.35
2022-08-17T06:57:59.035Z,5.53
2022-08-17T07:01:10.717Z,5.15
2022-08-17T07:04:19.208Z,4.93
2022-08-17T07:07:40.510Z,4.72
2022-08-17T07:10:56.680Z,4.53
2022-08-17T07:14:36.614Z,4.10
2022-08-17T07:17:47.720Z,4.40
2022-08-17T07:20:55.898Z,4.45
2022-08-17T07:24:29.961Z,4.62
2022-08-17T07:27:39.240Z,4.40
2022-08-17T07:30:53.682Z,4.05
2022-08-17T07:34:11.012Z,3.97
2022-08-17T07:37:19.514Z,3.58
2022-08-17T07:40:33.662Z,3.45
2022-08-17T07:43:39.440Z,4.05
2022-08-17T07:47:12.407Z,3.62
2022-08-17T07:50:27.277Z,3.53
2022-08-17T07:53:32.089Z,4.10
2022-08-17T07:56:54.155Z,3.35
2022-08-17T07:59:59.950Z,3.75
2022-08-17T08:03:27.152Z,3.30
2022-08-17T08:06:37.911Z,3.17
2022-08-17T08:10:00.696Z,3.58
2022-08-17T08:13:09.148Z,3.33
2022-08-17T08:16:29.557Z,3.20
2022-08-17T08:19:33.485Z,3.40
2022-08-17T08:22:57.359Z,3.30
2022-08-17T08:26:28.073Z,3.55
2022-08-17T08:29:47.986Z,3.28
2022-08-17T08:32:59.894Z,3.30
2022-08-17T08:37:13.020Z,3.67
2022-08-17T08:40:08.469Z,3.30
2022-08-17T08:43:17.306Z,3.87
2022-08-17T08:46:30.789Z,3.37
2022-08-17T08:50:02.849Z,3.50
2022-08-17T08:53:21.875Z,3.40
2022-08-17T08:57:11.873Z,3.35
2022-08-17T09:00:19.109Z,2.97
2022-08-17T09:03:52.737Z,3.47
2022-08-17T09:07:28.156Z,3.25
2022-08-17T09:10:53.065Z,2.92
2022-08-17T09:14:21.484Z,3.40
2022-08-17T09:17:36.929Z,3.00
2022-08-17T09:20:51.955Z,3.20
2022-08-17T09:24:02.338Z,3.25
2022-08-17T09:27:14.193Z,3.22
2022-08-17T09:30:24.993Z,3.28
2022-08-17T09:33:29.832Z,3.08
2022-08-17T09:36:43.764Z,3.10
2022-08-17T09:39:55.275Z,3.22
2022-08-17T09:43:19.681Z,3.08
2022-08-17T09:46:41.073Z,3.20
2022-08-17T09:49:56.805Z,3.62
2022-08-17T09:52:59.795Z,3.17
2022-08-17T09:56:33.327Z,2.62
2022-08-17T09:59:39.233Z,2.90
2022-08-17T10:03:16.182Z,3.30
2022-08-17T10:06:24.483Z,3.03
2022-08-17T10:09:39.043Z,3.12
2022-08-17T10:13:14.293Z,2.80
2022-08-17T10:16:47.365Z,3.10
2022-08-17T10:20:09.547Z,2.80
2022-08-17T10:23:51.353Z,2.85
2022-08-17T10:26:58.393Z,2.45
2022-08-17T10:30:04.781Z,2.87
2022-08-17T10:33:17.630Z,2.75
2022-08-17T10:36:28.365Z,3.20
2022-08-17T10:39:57.432Z,3.30
2022-08-17T10:43:26.321Z,2.70
2022-08-17T10:46:44.987Z,2.45
2022-08-17T10:49:53.869Z,2.55
2022-08-17T10:52:57.163Z,2.95
2022-08-17T10:56:19.299Z,2.80
2022-08-17T10:59:37.262Z,2.45
2022-08-17T11:02:47.898Z,2.55
2022-08-17T11:06:22.606Z,2.50
2022-08-17T11:09:44.258Z,2.45
2022-08-17T11:13:21.856Z,2.10
2022-08-17T11:16:45.649Z,1.85
2022-08-17T11:20:30.282Z,2.20
2022-08-17T11:23:45.017Z,2.00
2022-08-17T11:26:59.810Z,1.90
2022-08-17T11:30:15.394Z,2.15
2022-08-17T11:33:29.917Z,2.35
2022-08-17T11:36:51.827Z,1.98
2022-08-17T11:40:15.005Z,2.33
2022-08-17T11:43:17.459Z,2.20
2022-08-17T11:46:51.771Z,1.95
2022-08-17T11:50:38.260Z,1.98
2022-08-17T11:53:41.164Z,2.00
2022-08-17T11:56:50.614Z,1.95
2022-08-17T11:59:54.813Z,1.87
2022-08-17T12:03:22.561Z,1.98
2022-08-17T12:06:30.420Z,2.10
2022-08-17T12:09:39.656Z,2.20
2022-08-17T12:12:44.166Z,2.03
2022-08-17T12:15:50.768Z,2.22
2022-08-17T12:18:58.546Z,2.17
2022-08-17T12:22:46.730Z,2.08
2022-08-17T12:26:00.359Z,1.83
2022-08-17T12:29:09.416Z,1.83
2022-08-17T12:32:22.250Z,1.90
2022-08-17T12:35:33.176Z,1.80
2022-08-17T12:38:38.167Z,1.85
2022-08-17T12:41:43.332Z,2.08
2022-08-17T12:44:50.054Z,1.90
2022-08-17T12:48:08.567Z,2.08
2022-08-17T12:51:12.728Z,1.87
2022-08-17T12:54:27.840Z,1.95
2022-08-17T12:57:39.171Z,2.25
2022-08-17T13:00:49.465Z,2.05
2022-08-17T13:03:57.201Z,1.83
2022-08-17T13:07:00.216Z,2.00
2022-08-17T13:10:04.351Z,2.00
2022-08-17T13:13:26.959Z,2.00
2022-08-17T13:16:33.387Z,1.80
2022-08-17T13:19:41.129Z,1.60
2022-08-17T13:22:55.955Z,1.80
2022-08-17T13:26:06.462Z,2.33
2022-08-17T13:29:29.038Z,1.92
2022-08-17T13:32:46.121Z,1.73
2022-08-17T13:36:06.387Z,2.12
2022-08-17T13:39:18.927Z,2.00
2022-08-17T13:42:51.728Z,1.90
2022-08-17T13:46:08.637Z,2.08
2022-08-17T13:49:12.109Z,1.90
2022-08-17T13:52:35.623Z,1.67
2022-08-17T13:55:51.901Z,1.90
2022-08-17T13:59:00.496Z,1.85
2022-08-17T14:02:05.206Z,1.65
2022-08-17T14:05:08.397Z,1.75
2022-08-17T14:08:15.459Z,1.85
2022-08-17T14:11:18.647Z,1.77
2022-08-17T14:14:23.191Z,1.83
2022-08-17T14:17:28.937Z,1.60
2022-08-17T14:20:32.222Z,1.80
2022-08-17T14:23:36.005Z,10.82
2022-08-17T14:26:38.556Z,2.35
2022-08-17T14:29:41.686Z,2.10
2022-08-17T14:32:45.181Z,1.60
2022-08-17T14:35:50.292Z,1.80
2022-08-17T14:38:53.165Z,1.80
2022-08-17T14:41:56.265Z,1.70
2022-08-17T14:44:59.525Z,2.00
2022-08-17T14:48:05.740Z,1.70
2022-08-17T14:51:09.026Z,1.70
2022-08-17T14:54:32.993Z,1.92
2022-08-17T14:57:35.686Z,1.60
2022-08-17T15:00:43.595Z,1.80
2022-08-17T15:03:46.189Z,1.95
2022-08-17T15:06:49.098Z,1.98
2022-08-17T15:09:52.016Z,1.70
2022-08-17T15:12:55.491Z,2.00
2022-08-17T15:16:02.529Z,2.00
2022-08-17T15:19:07.254Z,2.08
2022-08-17T15:22:23.844Z,1.85
2022-08-17T15:25:29.499Z,1.85
2022-08-17T15:28:32.474Z,1.80
2022-08-17T15:31:35.360Z,2.05
2022-08-17T15:34:38.188Z,1.90
2022-08-17T15:37:41.061Z,2.00
2022-08-17T15:40:47.659Z,1.70
2022-08-17T15:43:51.821Z,2.20
2022-08-17T15:46:55.952Z,1.90
2022-08-17T15:50:06.801Z,1.95
2022-08-17T15:53:10.285Z,1.75
2022-08-17T15:56:16.478Z,1.98
2022-08-17T15:59:19.383Z,2.12
2022-08-17T16:03:13.485Z,2.22
2022-08-17T16:05:50.202Z,2.03
2022-08-17T16:08:54.573Z,2.15
2022-08-17T16:11:57.374Z,1.90
2022-08-17T16:15:00.351Z,2.10
2022-08-17T16:18:03.309Z,2.25
2022-08-17T16:21:29.684Z,3.00
2022-08-17T16:24:36.952Z,2.40
2022-08-17T16:27:39.743Z,2.03
2022-08-17T16:30:43.451Z,2.08
2022-08-17T16:34:15.764Z,2.20
2022-08-17T16:37:11.346Z,1.73
2022-08-17T16:40:17.111Z,2.17
2022-08-17T16:43:20.208Z,1.80
2022-08-17T16:46:22.734Z,2.10
2022-08-17T16:49:36.605Z,2.03
2022-08-17T16:52:41.261Z,2.10
2022-08-17T16:55:45.662Z,1.90
2022-08-17T16:58:48.203Z,2.15
2022-08-17T17:01:53.769Z,1.90
2022-08-17T17:05:01.131Z,2.00
2022-08-17T17:08:25.711Z,1.95
2022-08-17T17:11:42.514Z,2.40
2022-08-17T17:14:47.067Z,2.42
2022-08-17T17:17:52.354Z,2.20
2022-08-17T17:20:57.346Z,2.30
2022-08-17T17:24:06.523Z,2.20
2022-08-17T17:27:09.218Z,2.08
2022-08-17T17:30:24.260Z,2.08
2022-08-17T17:33:36.993Z,2.22
2022-08-17T17:36:45.333Z,2.35
2022-08-17T17:39:52.589Z,2.70
2022-08-17T17:43:14.357Z,2.20
2022-08-17T17:46:29.272Z,1.93
2022-08-17T17:50:00.326Z,2.20
2022-08-17T17:53:11.481Z,2.42
2022-08-17T17:56:43.019Z,2.30
2022-08-17T18:00:03.473Z,2.92
2022-08-17T18:03:39.175Z,2.50
2022-08-17T18:06:56.089Z,2.10
2022-08-17T18:10:30.181Z,2.10
2022-08-17T18:14:03.624Z,2.20
2022-08-17T18:17:07.294Z,1.92
2022-08-17T18:20:10.323Z,2.10
2022-08-17T18:23:13.108Z,2.50
2022-08-17T18:26:40.119Z,2.30
2022-08-17T18:29:48.064Z,2.30
2022-08-17T18:32:50.933Z,2.20
2022-08-17T18:35:58.882Z,2.50
2022-08-17T18:42:26.363Z,2.67
2022-08-17T18:45:41.051Z,2.33
2022-08-17T18:49:07.640Z,2.50
2022-08-17T18:52:23.008Z,2.50
2022-08-17T18:55:29.307Z,2.62
2022-08-17T18:58:32.206Z,2.60
2022-08-17T19:01:53.242Z,2.60
2022-08-17T19:05:25.005Z,2.67
2022-08-17T19:08:30.556Z,2.72
2022-08-17T19:11:35.193Z,3.10
2022-08-17T19:14:38.338Z,3.05
2022-08-17T19:18:15.823Z,2.72
2022-08-17T19:21:23.942Z,2.53
2022-08-17T19:24:31.960Z,2.97
2022-08-17T19:28:03.550Z,3.62
2022-08-17T19:31:23.409Z,3.37
2022-08-17T19:34:34.157Z,3.50
2022-08-17T19:37:59.571Z,3.53
2022-08-17T19:41:11.337Z,4.10
2022-08-17T19:44:38.468Z,3.92
2022-08-17T19:47:55.071Z,3.65
2022-08-17T19:51:06.549Z,3.58
2022-08-17T19:54:15.920Z,4.00
2022-08-17T19:57:35.664Z,3.62
2022-08-17T20:00:46.908Z,3.87
2022-08-17T20:04:01.231Z,3.67
2022-08-17T20:07:13.445Z,4.10
2022-08-17T20:10:47.257Z,3.90
2022-08-17T20:14:06.869Z,4.28
2022-08-17T20:17:12.839Z,4.10
2022-08-17T20:20:47.668Z,3.70
2022-08-17T20:24:21.454Z,4.10
2022-08-17T20:27:31.576Z,4.15
2022-08-17T20:30:41.324Z,4.50
2022-08-17T20:33:43.844Z,4.60
2022-08-17T20:37:04.953Z,4.43
2022-08-17T20:40:17.703Z,3.90
2022-08-17T20:46:38.370Z,4.32
2022-08-17T20:49:44.633Z,4.57
2022-08-17T20:52:53.785Z,4.70
2022-08-17T20:55:57.052Z,3.95
2022-08-17T20:59:01.833Z,3.87
2022-08-17T21:02:18.202Z,3.90
2022-08-17T21:05:49.720Z,3.65
2022-08-17T21:09:12.515Z,3.58
2022-08-17T21:12:42.534Z,2.92
2022-08-17T21:16:06.346Z,3.25
2022-08-17T21:19:31.082Z,3.28
2022-08-17T21:22:43.180Z,3.03
2022-08-17T21:26:01.567Z,3.67
2022-08-17T21:29:17.878Z,3.00
2022-08-17T21:32:37.005Z,3.45
2022-08-17T21:36:15.652Z,3.40
2022-08-17T21:39:31.455Z,3.17
2022-08-17T21:42:39.458Z,3.17
2022-08-17T21:45:43.530Z,3.33
2022-08-17T21:48:48.267Z,3.72
2022-08-17T21:51:54.663Z,3.00
2022-08-17T21:55:02.387Z,3.12
2022-08-17T21:58:17.791Z,3.42
2022-08-17T22:01:30.344Z,3.40
2022-08-17T22:04:42.725Z,3.08
2022-08-17T22:07:50.624Z,2.90
2022-08-17T22:11:01.611Z,3.20
2022-08-17T22:14:16.782Z,3.20
2022-08-17T22:17:22.425Z,3.10
2022-08-17T22:20:24.951Z,2.80
2022-08-17T22:23:59.035Z,3.25
2022-08-17T22:27:11.605Z,3.00
2022-08-17T22:30:27.388Z,3.00
2022-08-17T22:33:33.317Z,3.28
2022-08-17T22:36:39.046Z,3.08
2022-08-17T22:39:41.705Z,3.08
2022-08-17T22:42:49.282Z,3.37
2022-08-17T22:45:58.667Z,3.25
2022-08-17T22:49:01.503Z,3.35
2022-08-17T22:53:00.598Z,3.95
2022-08-17T22:56:23.047Z,3.83
2022-08-17T22:59:54.598Z,3.90
2022-08-17T23:03:12.312Z,3.55
2022-08-17T23:06:14.896Z,3.97
2022-08-17T23:09:17.710Z,3.60
2022-08-17T23:12:26.447Z,3.25
2022-08-17T23:15:33.252Z,3.67
2022-08-17T23:18:36.393Z,3.70
2022-08-17T23:21:39.488Z,4.05
2022-08-17T23:24:45.721Z,3.40
2022-08-17T23:27:48.808Z,3.50
2022-08-17T23:30:51.388Z,3.85
2022-08-17T23:33:54.864Z,3.22
2022-08-17T23:36:57.842Z,3.40
2022-08-17T23:40:00.754Z,3.50
2022-08-17T23:43:17.365Z,3.60
2022-08-17T23:46:27.708Z,3.50
2022-08-17T23:49:31.417Z,3.15
2022-08-17T23:52:38.534Z,3.53
2022-08-17T23:55:41.012Z,3.00
2022-08-17T23:58:44.847Z,3.28
